Time;durP1;ratioP1;P1;durP2;ratioP2;P2;SDS_P1;SDS_P2;PMS_P1;PMS_P2;Temp;Humidity;BMP_temperature;BMP_pressure;BME280_temperature;BME280_humidity;BME280_pressure;Samples;Min_cycle;Max_cycle;Signal;HPM_P1;HPM_P2
2022/07/21 00:02:28;;;;;;;21.98;14.10;;;;;;;19.39;100.00;101842.47;7385820;19;20069;-77
2022/07/21 00:04:58;;;;;;;27.93;16.60;;;;;;;19.36;100.00;101842.47;7386679;19;20015;-76
2022/07/21 00:07:30;;;;;;;23.87;15.43;;;;;;;19.43;100.00;101829.13;7387362;19;20007;-77
2022/07/21 00:10:00;;;;;;;29.05;16.38;;;;;;;19.40;100.00;101820.28;7386419;19;20017;-77
2022/07/21 00:12:30;;;;;;;27.67;17.42;;;;;;;19.44;100.00;101824.69;7386104;19;20019;-77
2022/07/21 00:15:00;;;;;;;28.70;17.70;;;;;;;19.45;100.00;101824.69;7385409;19;20018;-76
2022/07/21 00:17:33;;;;;;;29.48;16.42;;;;;;;19.45;100.00;101831.78;7384927;19;20039;-77
2022/07/21 00:20:03;;;;;;;30.90;16.35;;;;;;;19.45;100.00;101837.09;7372745;19;20011;-78
2022/07/21 00:22:33;;;;;;;26.38;17.02;;;;;;;19.48;100.00;101831.75;7384386;19;20014;-77
2022/07/21 00:25:03;;;;;;;34.33;18.65;;;;;;;19.41;100.00;101820.28;7383748;19;20007;-77
2022/07/21 00:27:33;;;;;;;32.13;18.38;;;;;;;19.45;100.00;101819.34;7382503;19;20412;-77
2022/07/21 00:30:04;;;;;;;29.15;19.13;;;;;;;19.37;100.00;101821.19;7379944;19;20026;-76
2022/07/21 00:32:37;;;;;;;30.25;17.10;;;;;;;19.42;100.00;101821.16;7380946;19;20006;-77
2022/07/21 00:35:09;;;;;;;30.17;17.38;;;;;;;19.45;100.00;101830.00;7379317;19;20022;-77
2022/07/21 00:37:41;;;;;;;30.25;17.83;;;;;;;19.42;100.00;101821.16;7380533;19;20021;-76
2022/07/21 00:40:15;;;;;;;33.67;18.27;;;;;;;19.49;100.00;101822.88;7378142;19;20604;-78
2022/07/21 00:42:46;;;;;;;29.52;17.58;;;;;;;19.46;100.00;101818.47;7377923;19;20015;-77
2022/07/21 00:45:16;;;;;;;27.40;15.60;;;;;;;19.50;100.00;101808.69;7380106;19;20109;-77
2022/07/21 00:47:51;;;;;;;32.10;18.08;;;;;;;19.52;100.00;101812.25;7378859;19;20014;-77
2022/07/21 00:50:23;;;;;;;31.42;17.75;;;;;;;19.53;100.00;101814.00;7380486;19;20014;-77
2022/07/21 00:52:53;;;;;;;27.55;16.70;;;;;;;19.48;100.00;101815.78;7374014;19;20496;-76
2022/07/21 00:55:26;;;;;;;27.10;16.48;;;;;;;19.45;100.00;101822.00;7377962;19;20483;-77
2022/07/21 00:57:57;;;;;;;30.25;18.15;;;;;;;19.44;100.00;101822.91;7379527;19;20036;-77
2022/07/21 01:00:30;;;;;;;31.85;18.67;;;;;;;19.34;100.00;101821.22;7378215;19;20007;-77
2022/07/21 01:03:10;;;;;;;27.08;17.77;;;;;;;19.38;100.00;101822.06;7380004;19;20010;-78
2022/07/21 01:05:40;;;;;;;28.85;17.60;;;;;;;19.38;100.00;101814.97;7382330;19;20013;-77
2022/07/21 01:08:11;;;;;;;29.48;17.52;;;;;;;19.37;100.00;101821.19;7377167;19;20519;-77
2022/07/21 01:10:42;;;;;;;29.15;16.90;;;;;;;19.44;100.00;101819.38;7377722;19;20475;-77
2022/07/21 01:13:13;;;;;;;33.20;18.48;;;;;;;19.44;100.00;101820.25;7377832;19;20006;-78
2022/07/21 01:15:43;;;;;;;31.45;17.65;;;;;;;19.44;100.00;101814.03;7378274;19;20020;-79
2022/07/21 01:18:16;;;;;;;30.50;18.70;;;;;;;19.43;100.00;101823.81;7376800;19;20018;-77
2022/07/21 01:20:53;;;;;;;28.75;18.02;;;;;;;19.42;100.00;101818.50;7377367;19;20045;-77
2022/07/21 01:23:26;;;;;;;30.98;17.50;;;;;;;19.44;100.00;101814.03;7379354;19;20022;-77
2022/07/21 01:25:57;;;;;;;32.83;18.80;;;;;;;19.43;100.00;101812.28;7378757;19;20010;-77
2022/07/21 01:28:27;;;;;;;29.60;18.35;;;;;;;19.37;100.00;101807.88;7377617;19;20018;-77
2022/07/21 01:30:56;;;;;;;32.90;19.10;;;;;;;19.38;100.00;101801.69;7376507;19;20058;-77
2022/07/21 01:33:27;;;;;;;33.55;19.40;;;;;;;19.40;100.00;101791.03;7375901;19;20007;-77
2022/07/21 01:35:56;;;;;;;29.92;17.50;;;;;;;19.34;100.00;101789.28;7379628;19;20048;-77
2022/07/21 01:43:54;;;;;;;30.40;17.23;;;;;;;19.36;100.00;101792.81;7379880;19;20018;-77
2022/07/21 01:46:24;;;;;;;32.17;18.98;;;;;;;19.40;100.00;101804.31;7377571;19;20271;-78
2022/07/21 01:48:55;;;;;;;36.17;19.10;;;;;;;19.36;100.00;101792.81;7377492;19;20074;-78
2022/07/21 01:51:25;;;;;;;33.03;19.10;;;;;;;19.35;100.00;101799.03;7379289;19;20014;-78
2022/07/21 01:53:58;;;;;;;30.67;18.40;;;;;;;19.35;100.00;101799.03;7372487;19;20020;-78
2022/07/21 01:56:29;;;;;;;33.95;19.95;;;;;;;19.32;100.00;101803.50;7376639;19;20028;-78
2022/07/21 01:59:00;;;;;;;30.42;18.48;;;;;;;19.30;100.00;101790.22;7377730;19;20258;-77
2022/07/21 02:01:32;;;;;;;34.03;20.33;;;;;;;19.30;100.00;101787.56;7374948;19;20032;-78
2022/07/21 02:04:04;;;;;;;33.17;20.20;;;;;;;19.24;100.00;101777.84;7374051;19;20015;-78
2022/07/21 02:06:34;;;;;;;34.53;19.55;;;;;;;19.28;100.00;101770.72;7376451;19;20007;-77
2022/07/21 02:09:08;;;;;;;32.47;17.70;;;;;;;19.30;100.00;101774.25;7375283;19;20021;-77
2022/07/21 02:11:38;;;;;;;30.65;18.30;;;;;;;19.30;100.00;101773.38;7378109;19;20043;-77
2022/07/21 02:14:08;;;;;;;35.55;18.98;;;;;;;19.28;100.00;101776.03;7375679;19;20015;-77
2022/07/21 02:16:39;;;;;;;32.00;18.95;;;;;;;19.28;100.00;101784.03;7375499;19;20015;-77
2022/07/21 02:19:11;;;;;;;40.92;23.25;;;;;;;19.22;100.00;101776.09;7373125;19;20039;-77
2022/07/21 02:21:41;;;;;;;37.70;21.20;;;;;;;19.26;100.00;101785.81;7377023;19;20351;-76
2022/07/21 02:24:16;;;;;;;36.50;20.48;;;;;;;19.26;100.00;101784.03;7374451;19;20506;-77
2022/07/21 02:26:47;;;;;;;41.38;23.98;;;;;;;19.20;100.00;101781.41;7374445;19;20048;-76
2022/07/21 02:29:16;;;;;;;38.15;21.45;;;;;;;19.23;100.00;101777.84;7376421;19;20039;-77
2022/07/21 02:31:46;;;;;;;37.67;20.55;;;;;;;19.28;100.00;101779.59;7384158;19;20450;-77
2022/07/21 02:34:16;;;;;;;39.63;22.42;;;;;;;19.20;100.00;101776.09;7380226;19;20416;-77
2022/07/21 02:36:46;;;;;;;40.70;21.80;;;;;;;19.19;100.00;101770.78;7383015;19;20006;-79
2022/07/21 02:39:19;;;;;;;41.20;22.73;;;;;;;19.16;100.00;101769.03;7381974;19;20011;-77
2022/07/21 02:41:49;;;;;;;43.72;22.88;;;;;;;19.14;100.00;101761.97;7381331;19;20014;-77
2022/07/21 02:44:19;;;;;;;37.97;21.38;;;;;;;19.15;100.00;101761.94;7382757;19;20082;-78
2022/07/21 02:46:49;;;;;;;39.00;22.58;;;;;;;19.12;100.00;101748.69;7381262;19;20428;-78
2022/07/21 02:49:21;;;;;;;42.65;21.90;;;;;;;19.12;100.00;101748.69;7381757;19;20559;-78
2022/07/21 02:51:51;;;;;;;41.13;21.00;;;;;;;19.15;100.00;101759.28;7380256;19;20021;-77
2022/07/21 02:54:23;;;;;;;34.15;19.92;;;;;;;19.15;100.00;101753.97;7370397;19;20010;-77
2022/07/21 02:56:53;;;;;;;42.97;22.08;;;;;;;19.05;100.00;101746.06;7382921;19;20082;-77
2022/07/21 02:59:23;;;;;;;38.60;21.15;;;;;;;19.13;100.00;101745.13;7384129;19;20011;-77
2022/07/21 03:01:53;;;;;;;35.03;20.27;;;;;;;19.17;100.00;101746.00;7380135;19;20085;-79
2022/07/21 03:04:24;;;;;;;37.53;20.88;;;;;;;19.19;100.00;101752.19;7381432;19;20044;-78
2022/07/21 03:06:55;;;;;;;36.47;20.85;;;;;;;19.20;100.00;101757.47;7381258;19;20011;-77
2022/07/21 03:09:29;;;;;;;39.30;21.48;;;;;;;19.12;100.00;101753.13;7381774;19;20007;-76
2022/07/21 03:11:59;;;;;;;37.47;21.80;;;;;;;19.15;100.00;101748.66;7385047;19;20014;-77
2022/07/21 03:14:29;;;;;;;40.63;22.20;;;;;;;19.19;100.00;101747.75;7383058;19;20472;-77
2022/07/21 03:17:02;;;;;;;43.65;21.75;;;;;;;19.19;100.00;101750.41;7385271;19;20031;-77
2022/07/21 03:19:32;;;;;;;42.05;22.75;;;;;;;19.23;100.00;101748.59;7380553;19;20007;-78
2022/07/21 03:22:02;;;;;;;43.72;24.23;;;;;;;19.17;100.00;101752.19;7387295;19;20014;-76
2022/07/21 03:24:34;;;;;;;42.13;22.10;;;;;;;19.25;100.00;101755.66;7381688;19;20025;-78
2022/07/21 03:27:04;;;;;;;37.97;20.77;;;;;;;19.23;100.00;101760.13;7383650;19;20014;-79
2022/07/21 03:29:36;;;;;;;43.13;23.02;;;;;;;19.19;100.00;101760.16;7382750;19;20259;-77
2022/07/21 03:32:07;;;;;;;38.78;22.02;;;;;;;19.18;100.00;101758.38;7387604;19;20564;-77
2022/07/21 03:34:37;;;;;;;43.58;23.23;;;;;;;19.19;100.00;101758.38;7385956;19;20459;-77
2022/07/21 03:37:07;;;;;;;46.50;25.63;;;;;;;19.20;100.00;101757.47;7385155;19;20046;-76
2022/07/21 03:39:40;;;;;;;43.75;22.58;;;;;;;19.27;100.00;101743.25;7389073;19;20014;-77
2022/07/21 03:42:12;;;;;;;47.50;24.98;;;;;;;19.28;100.00;101754.75;7384506;19;20061;-76
2022/07/21 03:44:42;;;;;;;50.70;27.52;;;;;;;19.21;100.00;101745.06;7385723;19;20014;-75
2022/07/21 03:47:12;;;;;;;48.08;24.50;;;;;;;19.20;100.00;101746.84;7383070;19;20036;-75
2022/07/21 03:49:42;;;;;;;47.60;24.95;;;;;;;19.25;100.00;101749.47;7385177;19;20010;-75
2022/07/21 03:52:12;;;;;;;47.33;24.17;;;;;;;19.20;100.00;101751.28;7381445;19;20406;-75
2022/07/21 03:54:44;;;;;;;50.53;24.30;;;;;;;19.19;100.00;101745.09;7385831;19;20011;-75
2022/07/21 03:57:14;;;;;;;49.17;25.25;;;;;;;19.17;100.00;101751.31;7387461;19;20011;-76
2022/07/21 03:59:47;;;;;;;44.85;24.08;;;;;;;19.15;100.00;101759.28;7383708;19;20323;-76
2022/07/21 04:02:24;;;;;;;50.10;25.95;;;;;;;19.15;100.00;101756.63;7382033;19;20069;-76
2022/07/21 04:04:54;;;;;;;47.85;24.60;;;;;;;19.10;100.00;101754.91;7381145;19;20010;-76
2022/07/21 04:07:24;;;;;;;51.50;24.23;;;;;;;19.11;100.00;101757.56;7381875;19;20010;-76
2022/07/21 04:09:57;;;;;;;45.10;23.85;;;;;;;19.15;100.00;101759.28;7381182;19;20035;-76
2022/07/21 04:12:29;;;;;;;44.85;24.70;;;;;;;19.21;100.00;101758.38;7380499;19;20697;-76
2022/07/21 04:14:59;;;;;;;50.40;24.10;;;;;;;19.11;100.00;101752.22;7379111;19;20011;-76
2022/07/21 04:17:30;;;;;;;38.05;21.05;;;;;;;19.16;100.00;101755.75;7382034;19;20007;-76
2022/07/21 04:20:03;;;;;;;41.05;20.83;;;;;;;19.21;100.00;101764.56;7376705;19;20006;-76
2022/07/21 04:22:33;;;;;;;44.17;24.10;;;;;;;19.20;100.00;101770.78;7377827;19;20011;-76
2022/07/21 04:25:07;;;;;;;44.47;22.10;;;;;;;19.24;100.00;101769.88;7378632;19;20015;-76
2022/07/21 04:27:38;;;;;;;37.20;20.70;;;;;;;19.26;100.00;101762.75;7378448;19;20535;-75
2022/07/21 04:30:12;;;;;;;38.45;20.42;;;;;;;19.20;100.00;101768.13;7378327;19;20652;-75
2022/07/21 04:32:42;;;;;;;;;;;;;;;19.14;100.00;101765.50;7379355;19;20010;-76
2022/07/21 04:35:13;;;;;;;35.58;18.38;;;;;;;19.17;100.00;101768.13;7379549;19;19918;-76
2022/07/21 04:37:43;;;;;;;34.67;17.90;;;;;;;19.20;100.00;101770.78;7377148;19;20040;-76
2022/07/21 04:40:19;;;;;;;41.55;20.60;;;;;;;19.15;100.00;101772.59;7377854;19;20039;-76
2022/07/21 04:42:51;;;;;;;39.80;21.88;;;;;;;19.14;100.00;101773.47;7380268;19;20047;-76
2022/07/21 04:45:21;;;;;;;35.40;18.88;;;;;;;19.14;100.00;101765.50;7377170;19;20007;-77
2022/07/21 04:47:54;;;;;;;40.90;22.02;;;;;;;19.09;100.00;101764.66;7379453;19;20472;-76
2022/07/21 04:50:27;;;;;;;40.72;20.70;;;;;;;19.03;100.00;101764.69;7380465;19;20003;-77
2022/07/21 04:52:58;;;;;;;38.03;18.08;;;;;;;19.10;100.00;101771.75;7369699;19;20053;-76
2022/07/21 04:55:31;;;;;;;37.63;19.80;;;;;;;19.04;100.00;101765.59;7379290;19;20503;-77
2022/07/21 04:58:01;;;;;;;37.50;19.55;;;;;;;19.06;100.00;101766.44;7377061;19;20045;-76
2022/07/21 05:00:31;;;;;;;40.78;19.30;;;;;;;19.06;100.00;101771.78;7378376;19;21042;-76
2022/07/21 05:03:01;;;;;;;46.70;22.33;;;;;;;19.01;100.00;101770.91;7379361;19;20046;-75
2022/07/21 05:05:31;;;;;;;40.25;21.02;;;;;;;19.03;100.00;101769.13;7378576;19;20002;-76
2022/07/21 05:08:01;;;;;;;43.67;22.98;;;;;;;19.01;100.00;101771.81;7378096;19;20014;-76
2022/07/21 05:10:34;;;;;;;39.47;22.40;;;;;;;19.06;100.00;101766.44;7377751;19;20006;-75
2022/07/21 05:13:04;;;;;;;42.58;22.67;;;;;;;19.13;100.00;101760.19;7377942;19;20040;-76
2022/07/21 05:15:34;;;;;;;40.08;24.23;;;;;;;19.08;100.00;101760.22;7376396;19;20027;-75
2022/07/21 05:18:04;;;;;;;52.50;26.38;;;;;;;19.09;100.00;101766.44;7374801;19;20356;-75
2022/07/21 05:20:35;;;;;;;47.30;24.67;;;;;;;19.11;100.00;101765.53;7379088;19;20403;-76
2022/07/21 05:23:05;;;;;;;54.80;27.13;;;;;;;19.09;100.00;101764.66;7376754;19;20015;-77
2022/07/21 05:25:37;;;;;;;58.38;24.80;;;;;;;19.08;100.00;101768.22;7376619;19;20459;-77
2022/07/21 05:28:08;;;;;;;59.47;24.48;;;;;;;19.04;100.00;101770.91;7377941;19;20623;-76
2022/07/21 05:30:40;;;;;;;54.85;25.13;;;;;;;18.91;100.00;101775.41;7377964;19;20111;-76
2022/07/21 05:33:10;;;;;;;47.88;23.45;;;;;;;18.94;100.00;101770.06;7375274;19;20011;-76
2022/07/21 05:35:40;;;;;;;45.90;22.50;;;;;;;18.92;100.00;101770.09;7376213;19;20027;-75
2022/07/21 05:38:13;;;;;;;53.60;22.20;;;;;;;18.98;100.00;101771.81;7376404;19;20018;-77
2022/07/21 05:40:45;;;;;;;55.20;23.40;;;;;;;18.98;100.00;101766.50;7375977;19;20011;-75
2022/07/21 05:43:15;;;;;;;47.20;20.30;;;;;;;18.93;100.00;101774.50;7379596;19;20023;-76
2022/07/21 05:45:45;;;;;;;37.33;20.70;;;;;;;18.85;100.00;101772.78;7376176;19;20007;-76
2022/07/21 05:48:16;;;;;;;38.53;19.40;;;;;;;18.89;100.00;101766.56;7375226;19;20014;-76
2022/07/21 05:50:46;;;;;;;49.22;21.52;;;;;;;18.84;100.00;101773.69;7377859;19;20133;-77
2022/07/21 05:53:16;;;;;;;39.33;19.85;;;;;;;18.91;100.00;101780.72;7372854;19;20024;-76
2022/07/21 05:55:48;;;;;;;49.17;23.70;;;;;;;18.81;100.00;101779.91;7377019;19;20022;-76
2022/07/21 05:58:19;;;;;;;39.13;20.52;;;;;;;18.84;100.00;101781.66;7375109;19;20019;-76
2022/07/21 06:01:07;;;;;;;49.80;23.63;;;;;;;18.77;100.00;101785.25;7377200;19;20741;-76
2022/07/21 06:03:39;;;;;;;41.15;21.05;;;;;;;18.68;100.00;101790.63;7375097;19;20006;-76
2022/07/21 06:06:10;;;;;;;46.38;23.15;;;;;;;18.69;100.00;101784.44;7376995;19;20538;-76
2022/07/21 06:08:41;;;;;;;42.15;23.40;;;;;;;18.44;100.00;101788.94;7374650;19;20011;-77
2022/07/21 06:11:16;;;;;;;42.22;21.45;;;;;;;18.57;100.00;101788.00;7376585;19;20109;-75
2022/07/21 06:13:47;;;;;;;40.47;21.98;;;;;;;18.55;100.00;101782.69;7375313;19;20013;-78
2022/07/21 06:16:17;;;;;;;38.05;18.98;;;;;;;18.60;100.00;101782.66;7378693;19;20034;-76
2022/07/21 06:18:47;;;;;;;36.22;20.65;;;;;;;18.58;100.00;101787.09;7375732;19;20014;-76
2022/07/21 06:21:17;;;;;;;37.88;19.85;;;;;;;18.60;100.00;101791.56;7376464;19;20003;-76
2022/07/21 06:23:47;;;;;;;38.85;21.02;;;;;;;18.51;100.00;101790.69;7374056;19;20019;-76
2022/07/21 06:26:21;;;;;;;37.60;19.25;;;;;;;18.44;100.00;101792.47;7377489;19;20014;-76
2022/07/21 06:28:50;;;;;;;34.90;18.83;;;;;;;18.38;100.00;101795.16;7377388;19;20553;-76
2022/07/21 06:31:21;;;;;;;36.78;18.75;;;;;;;18.41;100.00;101789.84;7375364;19;20006;-75
2022/07/21 06:33:51;;;;;;;41.35;18.50;;;;;;;18.33;100.00;101788.97;7375357;19;20463;-76
2022/07/21 06:36:21;;;;;;;34.45;18.55;;;;;;;18.22;100.00;101796.09;7376210;19;20026;-76
2022/07/21 06:38:51;;;;;;;33.47;16.67;;;;;;;18.39;100.00;101801.34;7376007;19;20448;-75
2022/07/21 06:41:24;;;;;;;31.67;17.27;;;;;;;18.44;100.00;101799.56;7375632;19;20014;-76
2022/07/21 06:43:54;;;;;;;27.60;15.45;;;;;;;18.42;100.00;101799.56;7373565;19;20006;-77
2022/07/21 06:46:24;;;;;;;30.95;16.70;;;;;;;18.41;100.00;101800.44;7376290;19;20011;-75
2022/07/21 06:48:54;;;;;;;27.73;15.63;;;;;;;18.38;100.00;101799.59;7374217;19;20060;-75
2022/07/21 06:51:24;;;;;;;28.83;15.48;;;;;;;18.41;100.00;101800.44;7373680;19;20053;-75
2022/07/21 06:53:54;;;;;;;22.98;13.68;;;;;;;18.36;100.00;101804.00;7366999;19;20086;-74
2022/07/21 06:56:30;;;;;;;19.40;11.88;;;;;;;18.32;100.00;101803.16;7375488;19;20017;-76
2022/07/21 06:59:00;;;;;;;21.58;10.90;;;;;;;18.37;100.00;101814.63;7373926;19;20006;-75
2022/07/21 07:01:30;;;;;;;16.30;9.52;;;;;;;18.37;100.00;101819.06;7374109;19;20006;-74
2022/07/21 07:04:02;;;;;;;19.95;10.38;;;;;;;18.34;100.00;101819.94;7370201;19;20018;-74
2022/07/21 07:06:34;;;;;;;12.52;8.30;;;;;;;18.34;100.00;101825.25;7373730;19;20025;-75
2022/07/21 07:09:04;;;;;;;15.23;8.15;;;;;;;18.37;100.00;101825.25;7371124;19;20011;-73
2022/07/21 07:11:39;;;;;;;15.90;8.25;;;;;;;18.39;100.00;101827.91;7366219;19;20022;-73
2022/07/21 07:14:08;;;;;;;13.63;8.35;;;;;;;18.22;100.00;101831.50;7370933;19;20007;-72
2022/07/21 07:16:47;;;;;;;14.10;8.20;;;;;;;18.18;100.00;101837.69;7375804;19;20483;-72
2022/07/21 07:19:17;;;;;;;16.42;9.00;;;;;;;18.28;100.00;101835.91;7379783;19;20503;-72
2022/07/21 07:21:47;;;;;;;14.90;9.13;;;;;;;18.29;100.00;101838.56;7380095;19;20018;-73
2022/07/21 07:24:17;;;;;;;17.73;9.77;;;;;;;18.13;100.00;101843.91;7379187;19;20019;-73
2022/07/21 07:26:50;;;;;;;16.92;8.70;;;;;;;18.09;100.00;101845.69;7380485;19;20010;-71
2022/07/21 07:29:20;;;;;;;15.55;9.57;;;;;;;18.02;100.00;101843.91;7378319;19;20027;-74
2022/07/21 07:31:50;;;;;;;17.25;8.52;;;;;;;17.93;100.00;101844.81;7379014;19;20037;-74
2022/07/21 07:34:20;;;;;;;12.98;8.18;;;;;;;17.78;100.00;101849.25;7377241;19;20010;-73
2022/07/21 07:36:52;;;;;;;14.60;8.40;;;;;;;17.91;100.00;101845.69;7380773;19;20034;-73
2022/07/21 07:39:22;;;;;;;14.55;8.85;;;;;;;17.81;100.00;101834.22;7376192;19;20402;-74
2022/07/21 07:41:55;;;;;;;14.23;8.45;;;;;;;17.95;100.00;101837.72;7378475;19;20037;-75
2022/07/21 07:44:25;;;;;;;15.10;9.88;;;;;;;17.93;100.00;101834.19;7378581;19;20264;-77
2022/07/21 07:46:56;;;;;;;19.42;10.50;;;;;;;17.89;100.00;101832.44;7380701;19;20315;-75
2022/07/21 07:49:25;;;;;;;15.73;11.27;;;;;;;17.93;100.00;101836.84;7379487;19;20093;-74
2022/07/21 07:51:55;;;;;;;19.88;11.82;;;;;;;18.04;100.00;101841.25;7379302;19;20342;-74
2022/07/21 07:54:28;;;;;;;20.70;13.20;;;;;;;18.07;100.00;101835.94;7370733;19;20074;-74
2022/07/21 07:57:02;;;;;;;20.58;12.60;;;;;;;18.11;100.00;101832.41;7380592;19;20360;-74
2022/07/21 07:59:32;;;;;;;25.13;14.68;;;;;;;18.12;100.00;101834.16;7377649;19;20006;-75
2022/07/21 08:02:02;;;;;;;27.00;15.73;;;;;;;18.14;100.00;101832.41;7379245;19;20094;-76
2022/07/21 08:04:35;;;;;;;30.20;16.95;;;;;;;18.25;100.00;101831.47;7377921;19;20017;-77
2022/07/21 08:07:07;;;;;;;26.73;17.23;;;;;;;18.22;100.00;101835.91;7377923;19;20015;-74
2022/07/21 08:09:37;;;;;;;26.63;15.27;;;;;;;18.37;100.00;101838.53;7378320;19;20029;-75
2022/07/21 08:12:11;;;;;;;31.63;17.30;;;;;;;18.37;100.00;101840.31;7373581;19;20040;-74
2022/07/21 08:14:41;;;;;;;26.65;16.23;;;;;;;18.19;100.00;101841.25;7377768;19;20010;-74
2022/07/21 08:17:11;;;;;;;31.15;16.05;;;;;;;18.13;100.00;101841.25;7377904;19;20483;-76
2022/07/21 08:19:41;;;;;;;25.02;16.23;;;;;;;18.00;100.00;101843.03;7376985;19;20786;-75
2022/07/21 08:22:11;;;;;;;28.85;15.45;;;;;;;18.11;100.00;101848.34;7368964;19;20019;-75
2022/07/21 08:24:44;;;;;;;32.28;17.10;;;;;;;18.15;100.00;101850.09;7373564;19;20027;-75
2022/07/21 08:27:17;;;;;;;34.88;17.38;;;;;;;18.07;100.00;101852.75;7376834;19;20057;-75
2022/07/21 08:29:47;;;;;;;27.20;16.45;;;;;;;17.77;100.00;101852.78;7377496;19;20007;-75
2022/07/21 08:32:17;;;;;;;28.40;16.10;;;;;;;17.76;100.00;101856.31;7377645;19;20057;-75
2022/07/21 08:34:47;;;;;;;25.30;14.82;;;;;;;17.92;100.00;101858.97;7374793;19;20555;-76
2022/07/21 08:37:17;;;;;;;27.58;15.38;;;;;;;17.81;100.00;101863.41;7378207;19;20014;-76
2022/07/21 08:39:47;;;;;;;28.33;14.18;;;;;;;17.62;100.00;101859.84;7376764;19;20010;-76
2022/07/21 08:42:20;;;;;;;26.92;14.65;;;;;;;17.70;100.00;101857.22;7377826;19;20479;-76
2022/07/21 08:44:51;;;;;;;30.05;15.10;;;;;;;17.67;100.00;101872.28;7376425;19;20049;-76
2022/07/21 08:47:20;;;;;;;32.67;13.50;;;;;;;17.50;100.00;101874.88;7377367;19;20006;-78
2022/07/21 08:49:51;;;;;;;28.20;13.93;;;;;;;17.58;100.00;101875.78;7376424;19;20052;-77
2022/07/21 08:52:21;;;;;;;21.63;12.02;;;;;;;17.56;100.00;101874.88;7373434;19;20594;-77
2022/07/21 08:54:51;;;;;;;18.75;12.98;;;;;;;17.57;100.00;101881.97;7375424;19;20503;-75
2022/07/21 08:57:23;;;;;;;30.33;13.43;;;;;;;17.58;100.00;101884.63;7375470;19;20017;-75
2022/07/21 08:59:53;;;;;;;23.60;13.55;;;;;;;17.73;100.00;101873.13;7376376;19;20010;-75
2022/07/21 09:02:30;;;;;;;24.50;12.93;;;;;;;18.11;100.00;101866.91;7374359;19;20047;-74
2022/07/21 09:05:01;;;;;;;26.25;13.63;;;;;;;18.43;100.00;101869.50;7376590;19;20011;-75
2022/07/21 09:07:31;;;;;;;23.05;12.82;;;;;;;18.57;100.00;101870.34;7379018;19;20022;-78
2022/07/21 09:10:04;;;;;;;23.45;11.90;;;;;;;18.69;100.00;101874.78;7377573;19;20399;-79
2022/07/21 09:12:51;;;;;;;22.83;12.13;;;;;;;18.67;100.00;101874.78;7379397;19;20027;-79
2022/07/21 09:15:24;;;;;;;22.05;12.45;;;;;;;18.69;100.00;101877.44;7380398;19;20006;-80
2022/07/21 09:18:10;;;;;;;20.00;10.93;;;;;;;18.75;100.00;101880.03;7376327;19;20011;-79
2022/07/21 09:20:49;;;;;;;18.70;10.85;;;;;;;18.77;100.00;101879.13;7382580;19;20003;-80
2022/07/21 09:23:22;;;;;;;16.45;10.23;;;;;;;18.58;100.00;101883.63;7377092;19;20555;-78
2022/07/21 09:25:53;;;;;;;16.60;9.02;;;;;;;18.54;100.00;101886.31;7378712;19;20014;-79
2022/07/21 09:28:27;;;;;;;11.73;7.68;;;;;;;18.50;100.00;101890.75;7377921;19;20496;-78
2022/07/21 09:31:03;;;;;;;11.18;6.03;;;;;;;18.16;100.00;101894.34;7380421;19;20021;-78
2022/07/21 09:33:38;;;;;;;12.82;6.43;;;;;;;18.00;100.00;101903.19;7380107;19;20039;-80
2022/07/21 09:36:10;;;;;;;10.00;5.88;;;;;;;17.96;100.00;101897.91;7378415;19;20022;-78
2022/07/21 09:38:44;;;;;;;11.05;6.28;;;;;;;17.90;100.00;101897.91;7376951;19;20017;-80
2022/07/21 09:41:19;;;;;;;9.35;5.45;;;;;;;17.82;100.00;101910.28;7376738;19;20006;-79
2022/07/21 09:43:53;;;;;;;11.10;5.97;;;;;;;17.92;100.00;101900.56;7378249;19;20014;-79
2022/07/21 09:46:26;;;;;;;10.38;5.63;;;;;;;17.93;100.00;101907.63;7376190;19;20010;-78
2022/07/21 09:49:02;;;;;;;13.15;7.25;;;;;;;17.90;100.00;101908.50;7378134;19;20042;-78
2022/07/21 09:51:51;;;;;;;11.02;6.20;;;;;;;17.95;100.00;101905.84;7371992;19;20123;-75
2022/07/21 09:54:21;;;;;;;9.18;5.40;;;;;;;17.76;100.00;101909.38;7368362;19;20451;-77
2022/07/21 09:56:51;;;;;;;10.43;5.97;;;;;;;17.86;100.00;101911.16;7374784;19;20021;-76
2022/07/21 09:59:24;;;;;;;9.77;5.93;;;;;;;17.86;100.00;101922.66;7375049;19;20014;-77
2022/07/21 10:02:20;;;;;;;11.23;6.20;;;;;;;17.91;100.00;101912.94;7375558;19;20335;-76
2022/07/21 10:04:56;;;;;;;9.18;5.38;;;;;;;17.94;100.00;101920.91;7376473;19;20272;-75
2022/07/21 10:07:40;;;;;;;8.07;4.88;;;;;;;17.68;100.00;101917.34;7376136;19;20491;-73
2022/07/21 10:10:12;;;;;;;6.97;4.15;;;;;;;17.86;100.00;101927.09;7373518;19;20021;-75
2022/07/21 10:12:42;;;;;;;10.10;4.80;;;;;;;17.83;100.00;101922.66;7374946;19;20032;-75
2022/07/21 10:15:15;;;;;;;8.18;4.90;;;;;;;17.78;100.00;101923.53;7371449;19;20017;-74
2022/07/21 10:17:47;;;;;;;11.02;4.82;;;;;;;17.92;100.00;101927.09;7373178;19;20650;-75
2022/07/21 10:20:25;;;;;;;10.20;4.75;;;;;;;17.89;100.00;101930.63;7373144;19;20015;-75
2022/07/21 10:23:05;;;;;;;9.32;5.03;;;;;;;17.84;100.00;101929.75;7375506;19;20399;-75
2022/07/21 10:25:36;;;;;;;9.90;5.47;;;;;;;18.03;100.00;101925.31;7377285;19;20040;-75
2022/07/21 10:28:20;;;;;;;8.95;4.38;;;;;;;17.90;100.00;101935.06;7379263;19;20010;-74
2022/07/21 10:30:54;;;;;;;11.05;5.03;;;;;;;18.01;100.00;101937.72;7377543;19;20015;-75
2022/07/21 10:33:55;;;;;;;8.88;4.90;;;;;;;18.10;100.00;101936.81;7376802;19;20002;-75
2022/07/21 10:36:44;;;;;;;10.35;5.38;;;;;;;18.19;100.00;101937.72;7377212;19;20049;-77
2022/07/21 10:39:30;;;;;;;8.95;5.22;;;;;;;18.04;100.00;101931.53;7378524;19;20022;-78
2022/07/21 10:42:02;;;;;;;13.38;5.45;;;;;;;18.17;100.00;101930.63;7379157;19;20367;-76
2022/07/21 10:44:50;;;;;;;12.85;4.93;;;;;;;18.22;100.00;101943.00;7376534;19;20003;-74
2022/07/21 10:47:30;;;;;;;8.90;3.80;;;;;;;18.02;100.00;101935.94;7374284;19;20026;-75
2022/07/21 10:50:07;;;;;;;8.07;4.60;;;;;;;17.93;100.00;101945.66;7372426;19;20018;-77
2022/07/21 10:53:13;;;;;;;9.63;4.90;;;;;;;18.10;100.00;101935.06;7373801;19;20015;-76
2022/07/21 10:55:49;;;;;;;7.63;3.97;;;;;;;18.26;100.00;101951.88;7377690;19;20019;-76
2022/07/21 10:58:27;;;;;;;6.80;3.55;;;;;;;17.90;100.00;101953.63;7383059;19;20014;-76
2022/07/21 11:00:58;;;;;;;8.82;3.70;;;;;;;17.98;100.00;101951.88;7379181;19;20716;-76
2022/07/21 11:03:41;;;;;;;5.20;2.90;;;;;;;18.03;100.00;101956.28;7380615;19;20057;-75
2022/07/21 11:06:22;;;;;;;6.40;3.20;;;;;;;18.11;100.00;101955.41;7379418;19;20015;-76
2022/07/21 11:09:10;;;;;;;5.00;2.50;;;;;;;18.34;100.00;101963.38;7378688;19;20015;-75
2022/07/21 11:11:42;;;;;;;6.80;2.72;;;;;;;18.20;100.00;101966.03;7380475;19;20017;-74
2022/07/21 11:14:14;;;;;;;5.80;3.00;;;;;;;18.13;100.00;101969.56;7377896;19;20018;-75
2022/07/21 11:17:02;;;;;;;7.28;3.33;;;;;;;17.92;100.00;101970.44;7379161;19;20022;-76
2022/07/21 11:19:38;;;;;;;6.70;2.80;;;;;;;17.65;100.00;101978.34;7379916;19;20018;-74
2022/07/21 11:22:13;;;;;;;10.48;3.38;;;;;;;17.68;100.00;101983.66;7380748;19;20014;-76
2022/07/21 11:24:45;;;;;;;5.38;2.55;;;;;;;17.74;100.00;101980.13;7377829;19;20022;-75
2022/07/21 11:27:17;;;;;;;5.43;2.72;;;;;;;17.93;100.00;101977.50;7379152;19;20375;-73
2022/07/21 11:29:54;;;;;;;9.25;3.35;;;;;;;17.77;100.00;101975.72;7377836;19;20081;-75
2022/07/21 11:32:25;;;;;;;5.97;3.33;;;;;;;17.81;100.00;101980.16;7379657;19;20010;-75
2022/07/21 11:34:59;;;;;;;6.40;3.20;;;;;;;17.87;100.00;101989.91;7376017;19;20500;-75